Terminal Aerodrome Forecast
Issued by NWS

Current Version | Previous Version | Text Only | Print | Product List | Glossary Off
Versions: 1 2 3 4 5 6 7 8 9 10 11 12 13 14 15 16 17 18 19 20 21 22 23 24 25 26 27 28 29 30 31 32 33 34 35 36 37 38 39 40 41 42 43 44 45 46 47 48 49 50

000
FTUS44 KHGX 230301 AAA
TAFIAH
TAF AMD
KIAH 230301Z 2303/2406 VRB04KT 6SM -TSRA BR SCT008 BKN012CB OVC060
     FM230400 16008KT 5SM -TSRA BR SCT007 OVC015CB
      TEMPO 2305/2307 VRB15G30KT 1SM +TSRA BR BKN007 OVC015CB
     FM230800 20010KT P6SM BKN025 OVC050
     FM231200 24008KT P6SM SCT050 BKN100
     FM231500 24010KT P6SM SKC=

USA.gov is the U.S. government's official web portal to all federal, state and local government web resources and services.